sensor_id;sensor_type;location;lat;lon;timestamp;P1;durP1;ratioP1;P2;durP2;ratioP2
65759;SDS011;52496;51.082;5.066;2023-03-03T00:00:25;34.17;;;16.02;;
65759;SDS011;52496;51.082;5.066;2023-03-03T00:02:57;37.30;;;16.25;;
65759;SDS011;52496;51.082;5.066;2023-03-03T00:05:33;35.08;;;17.25;;
65759;SDS011;52496;51.082;5.066;2023-03-03T00:08:05;34.55;;;15.25;;
65759;SDS011;52496;51.082;5.066;2023-03-03T00:10:36;36.05;;;16.00;;
65759;SDS011;52496;51.082;5.066;2023-03-03T00:13:17;32.83;;;15.05;;
65759;SDS011;52496;51.082;5.066;2023-03-03T00:15:50;34.38;;;16.30;;
65759;SDS011;52496;51.082;5.066;2023-03-03T00:18:29;35.42;;;14.90;;
65759;SDS011;52496;51.082;5.066;2023-03-03T00:21:11;30.58;;;15.18;;
65759;SDS011;52496;51.082;5.066;2023-03-03T00:23:52;33.35;;;14.50;;
65759;SDS011;52496;51.082;5.066;2023-03-03T00:26:28;35.28;;;16.02;;
65759;SDS011;52496;51.082;5.066;2023-03-03T00:31:59;35.13;;;15.70;;
65759;SDS011;52496;51.082;5.066;2023-03-03T00:34:38;36.00;;;17.05;;
65759;SDS011;52496;51.082;5.066;2023-03-03T00:37:30;37.90;;;15.23;;
65759;SDS011;52496;51.082;5.066;2023-03-03T00:40:23;35.95;;;16.95;;
65759;SDS011;52496;51.082;5.066;2023-03-03T00:42:54;36.92;;;16.77;;
65759;SDS011;52496;51.082;5.066;2023-03-03T00:45:33;36.67;;;16.27;;
65759;SDS011;52496;51.082;5.066;2023-03-03T00:48:18;36.08;;;16.05;;
65759;SDS011;52496;51.082;5.066;2023-03-03T00:50:50;41.05;;;16.02;;
65759;SDS011;52496;51.082;5.066;2023-03-03T00:53:23;31.25;;;15.77;;
65759;SDS011;52496;51.082;5.066;2023-03-03T00:55:56;37.72;;;16.52;;
65759;SDS011;52496;51.082;5.066;2023-03-03T00:58:27;39.00;;;17.20;;
65759;SDS011;52496;51.082;5.066;2023-03-03T01:00:58;34.63;;;16.25;;
65759;SDS011;52496;51.082;5.066;2023-03-03T01:03:29;34.78;;;16.90;;
65759;SDS011;52496;51.082;5.066;2023-03-03T01:05:59;32.45;;;16.30;;
65759;SDS011;52496;51.082;5.066;2023-03-03T01:08:30;38.83;;;16.95;;
65759;SDS011;52496;51.082;5.066;2023-03-03T01:11:34;34.63;;;17.02;;
65759;SDS011;52496;51.082;5.066;2023-03-03T01:13:58;44.78;;;17.30;;
65759;SDS011;52496;51.082;5.066;2023-03-03T01:16:28;35.63;;;16.85;;
65759;SDS011;52496;51.082;5.066;2023-03-03T01:18:59;35.75;;;17.10;;
65759;SDS011;52496;51.082;5.066;2023-03-03T01:21:29;44.33;;;19.25;;
65759;SDS011;52496;51.082;5.066;2023-03-03T01:24:00;44.33;;;18.15;;
65759;SDS011;52496;51.082;5.066;2023-03-03T01:26:31;39.65;;;17.70;;
65759;SDS011;52496;51.082;5.066;2023-03-03T01:29:01;38.47;;;17.67;;
65759;SDS011;52496;51.082;5.066;2023-03-03T01:31:32;39.97;;;18.52;;
65759;SDS011;52496;51.082;5.066;2023-03-03T01:34:02;35.47;;;18.05;;
65759;SDS011;52496;51.082;5.066;2023-03-03T01:36:33;40.63;;;18.02;;
65759;SDS011;52496;51.082;5.066;2023-03-03T01:39:03;41.97;;;16.92;;
65759;SDS011;52496;51.082;5.066;2023-03-03T01:41:34;41.80;;;17.48;;
65759;SDS011;52496;51.082;5.066;2023-03-03T01:44:04;39.55;;;18.42;;
65759;SDS011;52496;51.082;5.066;2023-03-03T01:46:44;45.80;;;20.58;;
65759;SDS011;52496;51.082;5.066;2023-03-03T01:49:48;46.35;;;20.63;;
65759;SDS011;52496;51.082;5.066;2023-03-03T01:52:33;43.42;;;17.98;;
65759;SDS011;52496;51.082;5.066;2023-03-03T01:55:08;47.97;;;18.95;;
65759;SDS011;52496;51.082;5.066;2023-03-03T01:57:45;45.03;;;19.63;;
65759;SDS011;52496;51.082;5.066;2023-03-03T02:00:20;48.03;;;19.30;;
65759;SDS011;52496;51.082;5.066;2023-03-03T02:02:51;49.45;;;20.13;;
65759;SDS011;52496;51.082;5.066;2023-03-03T02:05:24;52.45;;;20.02;;
65759;SDS011;52496;51.082;5.066;2023-03-03T02:07:55;45.83;;;20.42;;
65759;SDS011;52496;51.082;5.066;2023-03-03T02:10:25;49.25;;;22.40;;
65759;SDS011;52496;51.082;5.066;2023-03-03T02:12:58;48.85;;;20.63;;
65759;SDS011;52496;51.082;5.066;2023-03-03T02:15:33;50.92;;;21.27;;
65759;SDS011;52496;51.082;5.066;2023-03-03T02:18:13;49.90;;;22.15;;
65759;SDS011;52496;51.082;5.066;2023-03-03T02:21:02;56.25;;;26.10;;
65759;SDS011;52496;51.082;5.066;2023-03-03T02:26:33;62.88;;;25.38;;
65759;SDS011;52496;51.082;5.066;2023-03-03T02:29:08;65.72;;;26.58;;
65759;SDS011;52496;51.082;5.066;2023-03-03T02:31:39;68.53;;;27.13;;
65759;SDS011;52496;51.082;5.066;2023-03-03T02:34:09;69.40;;;26.80;;
65759;SDS011;52496;51.082;5.066;2023-03-03T02:36:40;70.30;;;26.33;;
65759;SDS011;52496;51.082;5.066;2023-03-03T02:39:13;67.53;;;24.10;;
65759;SDS011;52496;51.082;5.066;2023-03-03T02:41:57;79.47;;;29.65;;
65759;SDS011;52496;51.082;5.066;2023-03-03T02:44:36;64.38;;;25.27;;
65759;SDS011;52496;51.082;5.066;2023-03-03T02:47:07;65.60;;;25.48;;
65759;SDS011;52496;51.082;5.066;2023-03-03T02:49:38;66.53;;;24.52;;
65759;SDS011;52496;51.082;5.066;2023-03-03T02:52:10;63.67;;;24.33;;
65759;SDS011;52496;51.082;5.066;2023-03-03T02:54:41;55.88;;;23.10;;
65759;SDS011;52496;51.082;5.066;2023-03-03T02:57:12;64.45;;;25.73;;
65759;SDS011;52496;51.082;5.066;2023-03-03T02:59:42;70.10;;;26.33;;
65759;SDS011;52496;51.082;5.066;2023-03-03T03:02:13;81.95;;;27.92;;
65759;SDS011;52496;51.082;5.066;2023-03-03T03:04:43;87.75;;;30.85;;
65759;SDS011;52496;51.082;5.066;2023-03-03T03:07:14;104.60;;;32.30;;
65759;SDS011;52496;51.082;5.066;2023-03-03T03:09:44;89.00;;;29.80;;
65759;SDS011;52496;51.082;5.066;2023-03-03T03:12:15;76.72;;;30.75;;
65759;SDS011;52496;51.082;5.066;2023-03-03T03:14:48;89.75;;;31.80;;
65759;SDS011;52496;51.082;5.066;2023-03-03T03:17:18;82.80;;;29.02;;
65759;SDS011;52496;51.082;5.066;2023-03-03T03:19:49;86.10;;;30.48;;
65759;SDS011;52496;51.082;5.066;2023-03-03T03:22:19;80.93;;;29.83;;
65759;SDS011;52496;51.082;5.066;2023-03-03T03:24:50;83.28;;;29.80;;
65759;SDS011;52496;51.082;5.066;2023-03-03T03:27:20;87.97;;;31.85;;
65759;SDS011;52496;51.082;5.066;2023-03-03T03:29:52;127.43;;;38.75;;
65759;SDS011;52496;51.082;5.066;2023-03-03T03:32:23;118.25;;;38.67;;
65759;SDS011;52496;51.082;5.066;2023-03-03T03:34:53;120.65;;;40.17;;
65759;SDS011;52496;51.082;5.066;2023-03-03T03:37:24;100.68;;;33.00;;
65759;SDS011;52496;51.082;5.066;2023-03-03T03:39:54;82.63;;;28.88;;
65759;SDS011;52496;51.082;5.066;2023-03-03T03:42:25;71.75;;;26.63;;
65759;SDS011;52496;51.082;5.066;2023-03-03T03:44:56;69.38;;;24.92;;
65759;SDS011;52496;51.082;5.066;2023-03-03T03:47:26;79.72;;;29.73;;
65759;SDS011;52496;51.082;5.066;2023-03-03T03:49:57;81.63;;;30.60;;
65759;SDS011;52496;51.082;5.066;2023-03-03T03:52:27;85.05;;;30.60;;
65759;SDS011;52496;51.082;5.066;2023-03-03T03:54:59;112.07;;;39.50;;
65759;SDS011;52496;51.082;5.066;2023-03-03T03:57:29;127.82;;;40.58;;
65759;SDS011;52496;51.082;5.066;2023-03-03T04:00:00;123.82;;;38.33;;
65759;SDS011;52496;51.082;5.066;2023-03-03T04:02:31;131.43;;;40.22;;
65759;SDS011;52496;51.082;5.066;2023-03-03T04:05:02;118.90;;;39.05;;
65759;SDS011;52496;51.082;5.066;2023-03-03T04:07:33;98.43;;;34.22;;
65759;SDS011;52496;51.082;5.066;2023-03-03T04:10:04;105.00;;;32.22;;
65759;SDS011;52496;51.082;5.066;2023-03-03T04:12:35;120.15;;;38.70;;
65759;SDS011;52496;51.082;5.066;2023-03-03T04:15:10;109.00;;;36.10;;
65759;SDS011;52496;51.082;5.066;2023-03-03T04:17:42;104.15;;;32.90;;
65759;SDS011;52496;51.082;5.066;2023-03-03T04:20:13;91.68;;;31.80;;
65759;SDS011;52496;51.082;5.066;2023-03-03T04:22:44;90.35;;;31.02;;
65759;SDS011;52496;51.082;5.066;2023-03-03T04:25:15;99.45;;;33.60;;
65759;SDS011;52496;51.082;5.066;2023-03-03T04:27:46;107.85;;;32.90;;
65759;SDS011;52496;51.082;5.066;2023-03-03T04:30:17;91.80;;;29.83;;
65759;SDS011;52496;51.082;5.066;2023-03-03T04:32:48;77.63;;;26.98;;
65759;SDS011;52496;51.082;5.066;2023-03-03T04:35:19;92.00;;;30.02;;
65759;SDS011;52496;51.082;5.066;2023-03-03T04:37:49;87.35;;;27.77;;
65759;SDS011;52496;51.082;5.066;2023-03-03T04:40:20;73.90;;;26.92;;
65759;SDS011;52496;51.082;5.066;2023-03-03T04:42:51;80.47;;;27.05;;
65759;SDS011;52496;51.082;5.066;2023-03-03T04:45:21;69.55;;;25.95;;
65759;SDS011;52496;51.082;5.066;2023-03-03T04:47:52;79.53;;;28.38;;
65759;SDS011;52496;51.082;5.066;2023-03-03T04:50:22;74.05;;;23.92;;
65759;SDS011;52496;51.082;5.066;2023-03-03T04:52:53;72.07;;;25.42;;
65759;SDS011;52496;51.082;5.066;2023-03-03T04:55:24;71.05;;;23.58;;
65759;SDS011;52496;51.082;5.066;2023-03-03T04:57:54;75.60;;;27.90;;
65759;SDS011;52496;51.082;5.066;2023-03-03T05:00:25;88.45;;;30.27;;
65759;SDS011;52496;51.082;5.066;2023-03-03T05:02:55;75.70;;;26.65;;
65759;SDS011;52496;51.082;5.066;2023-03-03T05:05:26;85.82;;;29.58;;
65759;SDS011;52496;51.082;5.066;2023-03-03T05:07:56;101.38;;;31.00;;
65759;SDS011;52496;51.082;5.066;2023-03-03T05:10:27;96.28;;;31.08;;
65759;SDS011;52496;51.082;5.066;2023-03-03T05:12:57;85.82;;;29.42;;
65759;SDS011;52496;51.082;5.066;2023-03-03T05:15:28;98.82;;;29.60;;
65759;SDS011;52496;51.082;5.066;2023-03-03T05:17:58;85.22;;;27.65;;
65759;SDS011;52496;51.082;5.066;2023-03-03T05:20:29;72.55;;;26.88;;
65759;SDS011;52496;51.082;5.066;2023-03-03T05:22:59;71.35;;;24.20;;
65759;SDS011;52496;51.082;5.066;2023-03-03T05:25:30;69.75;;;26.70;;
65759;SDS011;52496;51.082;5.066;2023-03-03T05:28:01;76.88;;;27.13;;
65759;SDS011;52496;51.082;5.066;2023-03-03T05:30:33;61.08;;;23.35;;
65759;SDS011;52496;51.082;5.066;2023-03-03T05:33:05;77.32;;;26.05;;
65759;SDS011;52496;51.082;5.066;2023-03-03T05:35:36;78.93;;;28.50;;
65759;SDS011;52496;51.082;5.066;2023-03-03T05:38:06;78.88;;;25.90;;
65759;SDS011;52496;51.082;5.066;2023-03-03T05:40:37;84.85;;;28.63;;
65759;SDS011;52496;51.082;5.066;2023-03-03T05:43:08;82.00;;;27.80;;
65759;SDS011;52496;51.082;5.066;2023-03-03T05:45:38;75.35;;;25.23;;
65759;SDS011;52496;51.082;5.066;2023-03-03T05:48:09;67.55;;;24.42;;
65759;SDS011;52496;51.082;5.066;2023-03-03T05:50:40;68.60;;;21.70;;
65759;SDS011;52496;51.082;5.066;2023-03-03T05:53:10;63.35;;;24.45;;
65759;SDS011;52496;51.082;5.066;2023-03-03T05:55:41;65.03;;;24.67;;
65759;SDS011;52496;51.082;5.066;2023-03-03T05:58:11;66.07;;;25.40;;
65759;SDS011;52496;51.082;5.066;2023-03-03T06:00:42;80.07;;;24.80;;
65759;SDS011;52496;51.082;5.066;2023-03-03T06:03:12;78.75;;;27.80;;
65759;SDS011;52496;51.082;5.066;2023-03-03T06:05:43;82.40;;;28.40;;
65759;SDS011;52496;51.082;5.066;2023-03-03T06:08:13;75.55;;;26.10;;
65759;SDS011;52496;51.082;5.066;2023-03-03T06:10:44;82.57;;;26.88;;
65759;SDS011;52496;51.082;5.066;2023-03-03T06:13:14;64.55;;;21.70;;
65759;SDS011;52496;51.082;5.066;2023-03-03T06:15:45;62.40;;;23.55;;
65759;SDS011;52496;51.082;5.066;2023-03-03T06:18:15;58.70;;;21.58;;
65759;SDS011;52496;51.082;5.066;2023-03-03T06:20:50;63.88;;;23.42;;
65759;SDS011;52496;51.082;5.066;2023-03-03T06:23:21;70.53;;;25.98;;
65759;SDS011;52496;51.082;5.066;2023-03-03T06:25:52;78.50;;;28.08;;
65759;SDS011;52496;51.082;5.066;2023-03-03T06:28:23;70.60;;;25.45;;
65759;SDS011;52496;51.082;5.066;2023-03-03T06:30:54;56.50;;;21.35;;
65759;SDS011;52496;51.082;5.066;2023-03-03T06:33:25;63.95;;;22.65;;
65759;SDS011;52496;51.082;5.066;2023-03-03T06:35:55;71.72;;;25.35;;
65759;SDS011;52496;51.082;5.066;2023-03-03T06:38:26;66.40;;;23.13;;
65759;SDS011;52496;51.082;5.066;2023-03-03T06:40:57;66.32;;;22.88;;
65759;SDS011;52496;51.082;5.066;2023-03-03T06:43:27;67.80;;;22.27;;
65759;SDS011;52496;51.082;5.066;2023-03-03T06:45:58;63.35;;;23.15;;
65759;SDS011;52496;51.082;5.066;2023-03-03T06:48:28;59.65;;;21.63;;
65759;SDS011;52496;51.082;5.066;2023-03-03T06:51:00;58.25;;;23.33;;
65759;SDS011;52496;51.082;5.066;2023-03-03T06:53:32;57.00;;;22.25;;
65759;SDS011;52496;51.082;5.066;2023-03-03T06:56:04;53.13;;;19.20;;
65759;SDS011;52496;51.082;5.066;2023-03-03T06:58:38;54.50;;;20.30;;
65759;SDS011;52496;51.082;5.066;2023-03-03T07:01:14;45.95;;;18.85;;
65759;SDS011;52496;51.082;5.066;2023-03-03T07:03:47;52.70;;;20.95;;
65759;SDS011;52496;51.082;5.066;2023-03-03T07:08:48;51.50;;;18.63;;
65759;SDS011;52496;51.082;5.066;2023-03-03T07:11:21;39.63;;;16.50;;
65759;SDS011;52496;51.082;5.066;2023-03-03T07:13:53;52.08;;;19.20;;
65759;SDS011;52496;51.082;5.066;2023-03-03T07:16:26;48.80;;;19.35;;
65759;SDS011;52496;51.082;5.066;2023-03-03T07:19:00;48.03;;;19.48;;
65759;SDS011;52496;51.082;5.066;2023-03-03T07:21:34;51.03;;;18.23;;
65759;SDS011;52496;51.082;5.066;2023-03-03T07:24:28;50.95;;;20.35;;
65759;SDS011;52496;51.082;5.066;2023-03-03T07:27:44;54.63;;;20.13;;
65759;SDS011;52496;51.082;5.066;2023-03-03T07:29:54;57.40;;;19.98;;
65759;SDS011;52496;51.082;5.066;2023-03-03T07:35:35;44.40;;;16.88;;
65759;SDS011;52496;51.082;5.066;2023-03-03T07:41:00;42.92;;;15.88;;
65759;SDS011;52496;51.082;5.066;2023-03-03T07:43:49;39.28;;;14.45;;
65759;SDS011;52496;51.082;5.066;2023-03-03T07:48:59;41.38;;;17.45;;
65759;SDS011;52496;51.082;5.066;2023-03-03T07:51:37;31.77;;;14.32;;
65759;SDS011;52496;51.082;5.066;2023-03-03T08:05:39;38.45;;;16.20;;
65759;SDS011;52496;51.082;5.066;2023-03-03T08:08:25;40.35;;;16.98;;
65759;SDS011;52496;51.082;5.066;2023-03-03T08:10:59;53.13;;;20.33;;
65759;SDS011;52496;51.082;5.066;2023-03-03T08:18:44;40.88;;;15.73;;
65759;SDS011;52496;51.082;5.066;2023-03-03T08:21:21;38.92;;;17.02;;
65759;SDS011;52496;51.082;5.066;2023-03-03T08:23:53;44.67;;;15.73;;
65759;SDS011;52496;51.082;5.066;2023-03-03T08:26:23;30.20;;;13.13;;
65759;SDS011;52496;51.082;5.066;2023-03-03T08:28:54;38.03;;;14.90;;
65759;SDS011;52496;51.082;5.066;2023-03-03T08:31:25;35.67;;;15.20;;
65759;SDS011;52496;51.082;5.066;2023-03-03T08:33:56;35.83;;;13.30;;
65759;SDS011;52496;51.082;5.066;2023-03-03T08:36:27;37.70;;;15.77;;
65759;SDS011;52496;51.082;5.066;2023-03-03T08:38:58;30.77;;;12.80;;
65759;SDS011;52496;51.082;5.066;2023-03-03T08:41:28;36.33;;;14.82;;
65759;SDS011;52496;51.082;5.066;2023-03-03T08:43:59;35.80;;;14.95;;
65759;SDS011;52496;51.082;5.066;2023-03-03T08:46:29;33.28;;;14.60;;
65759;SDS011;52496;51.082;5.066;2023-03-03T08:49:00;37.00;;;15.52;;
65759;SDS011;52496;51.082;5.066;2023-03-03T08:51:30;34.95;;;15.30;;
65759;SDS011;52496;51.082;5.066;2023-03-03T08:54:03;40.80;;;15.68;;
65759;SDS011;52496;51.082;5.066;2023-03-03T08:56:33;36.00;;;14.70;;
65759;SDS011;52496;51.082;5.066;2023-03-03T08:59:07;35.20;;;14.23;;
65759;SDS011;52496;51.082;5.066;2023-03-03T09:01:37;35.00;;;15.65;;
65759;SDS011;52496;51.082;5.066;2023-03-03T09:04:07;43.78;;;15.15;;
65759;SDS011;52496;51.082;5.066;2023-03-03T09:06:38;37.67;;;15.00;;
65759;SDS011;52496;51.082;5.066;2023-03-03T09:09:09;33.80;;;15.32;;
65759;SDS011;52496;51.082;5.066;2023-03-03T09:11:39;34.78;;;14.25;;
65759;SDS011;52496;51.082;5.066;2023-03-03T09:14:14;40.75;;;14.68;;
65759;SDS011;52496;51.082;5.066;2023-03-03T09:16:52;29.98;;;13.95;;
65759;SDS011;52496;51.082;5.066;2023-03-03T09:19:28;33.28;;;11.73;;
65759;SDS011;52496;51.082;5.066;2023-03-03T09:22:08;30.13;;;12.57;;
65759;SDS011;52496;51.082;5.066;2023-03-03T09:24:49;35.95;;;13.88;;
65759;SDS011;52496;51.082;5.066;2023-03-03T09:27:27;35.95;;;13.68;;
65759;SDS011;52496;51.082;5.066;2023-03-03T09:30:43;28.90;;;12.70;;
65759;SDS011;52496;51.082;5.066;2023-03-03T09:32:53;31.70;;;12.55;;
65759;SDS011;52496;51.082;5.066;2023-03-03T09:35:31;38.17;;;16.45;;
65759;SDS011;52496;51.082;5.066;2023-03-03T09:38:29;37.25;;;14.90;;
65759;SDS011;52496;51.082;5.066;2023-03-03T09:55:29;34.28;;;13.93;;
65759;SDS011;52496;51.082;5.066;2023-03-03T10:10:46;37.03;;;15.10;;
65759;SDS011;52496;51.082;5.066;2023-03-03T10:13:34;31.13;;;12.70;;
65759;SDS011;52496;51.082;5.066;2023-03-03T10:18:57;30.85;;;12.48;;
65759;SDS011;52496;51.082;5.066;2023-03-03T10:24:23;39.40;;;15.25;;
65759;SDS011;52496;51.082;5.066;2023-03-03T10:40:51;43.33;;;17.42;;
65759;SDS011;52496;51.082;5.066;2023-03-03T10:43:48;43.97;;;17.80;;
65759;SDS011;52496;51.082;5.066;2023-03-03T11:00:47;33.83;;;13.00;;
65759;SDS011;52496;51.082;5.066;2023-03-03T11:17:26;37.50;;;17.17;;
65759;SDS011;52496;51.082;5.066;2023-03-03T11:20:10;35.28;;;15.75;;
65759;SDS011;52496;51.082;5.066;2023-03-03T11:23:01;39.63;;;17.38;;
65759;SDS011;52496;51.082;5.066;2023-03-03T11:25:48;36.05;;;16.00;;
65759;SDS011;52496;51.082;5.066;2023-03-03T11:28:51;34.40;;;15.68;;
65759;SDS011;52496;51.082;5.066;2023-03-03T11:36:38;32.25;;;14.40;;
65759;SDS011;52496;51.082;5.066;2023-03-03T11:39:22;25.88;;;12.88;;
65759;SDS011;52496;51.082;5.066;2023-03-03T11:44:47;34.03;;;15.85;;
65759;SDS011;52496;51.082;5.066;2023-03-03T11:47:25;31.85;;;13.85;;
65759;SDS011;52496;51.082;5.066;2023-03-03T11:50:21;35.00;;;16.80;;
65759;SDS011;52496;51.082;5.066;2023-03-03T11:56:26;32.03;;;14.38;;
65759;SDS011;52496;51.082;5.066;2023-03-03T11:59:02;30.30;;;14.52;;
65759;SDS011;52496;51.082;5.066;2023-03-03T12:01:44;28.35;;;13.50;;
65759;SDS011;52496;51.082;5.066;2023-03-03T12:07:22;29.65;;;13.85;;
65759;SDS011;52496;51.082;5.066;2023-03-03T12:09:57;27.67;;;13.10;;
65759;SDS011;52496;51.082;5.066;2023-03-03T12:21:06;28.13;;;12.45;;
65759;SDS011;52496;51.082;5.066;2023-03-03T12:35:05;27.27;;;12.43;;
65759;SDS011;52496;51.082;5.066;2023-03-03T12:37:45;24.35;;;11.05;;
65759;SDS011;52496;51.082;5.066;2023-03-03T12:40:24;30.00;;;13.68;;
65759;SDS011;52496;51.082;5.066;2023-03-03T12:48:16;28.58;;;13.27;;
65759;SDS011;52496;51.082;5.066;2023-03-03T12:51:00;29.65;;;13.25;;
65759;SDS011;52496;51.082;5.066;2023-03-03T13:16:44;22.77;;;11.18;;
65759;SDS011;52496;51.082;5.066;2023-03-03T13:19:37;23.08;;;11.48;;
65759;SDS011;52496;51.082;5.066;2023-03-03T13:22:26;25.45;;;11.52;;
65759;SDS011;52496;51.082;5.066;2023-03-03T13:25:02;23.55;;;11.85;;
65759;SDS011;52496;51.082;5.066;2023-03-03T13:27:43;26.35;;;12.15;;
65759;SDS011;52496;51.082;5.066;2023-03-03T13:30:19;21.98;;;11.32;;
65759;SDS011;52496;51.082;5.066;2023-03-03T13:32:58;24.05;;;11.25;;
65759;SDS011;52496;51.082;5.066;2023-03-03T13:35:43;23.33;;;11.48;;
65759;SDS011;52496;51.082;5.066;2023-03-03T13:38:25;24.88;;;11.02;;
65759;SDS011;52496;51.082;5.066;2023-03-03T13:43:48;22.23;;;11.25;;
65759;SDS011;52496;51.082;5.066;2023-03-03T13:55:48;23.75;;;10.15;;
65759;SDS011;52496;51.082;5.066;2023-03-03T14:04:35;17.27;;;8.98;;
65759;SDS011;52496;51.082;5.066;2023-03-03T14:10:01;17.67;;;9.45;;
65759;SDS011;52496;51.082;5.066;2023-03-03T14:12:41;16.85;;;8.63;;
65759;SDS011;52496;51.082;5.066;2023-03-03T14:15:25;18.90;;;8.18;;
65759;SDS011;52496;51.082;5.066;2023-03-03T14:26:30;17.48;;;8.10;;
65759;SDS011;52496;51.082;5.066;2023-03-03T14:29:18;15.70;;;7.75;;
65759;SDS011;52496;51.082;5.066;2023-03-03T14:32:00;13.25;;;7.07;;
65759;SDS011;52496;51.082;5.066;2023-03-03T14:34:56;14.98;;;7.55;;
65759;SDS011;52496;51.082;5.066;2023-03-03T14:37:29;14.90;;;8.00;;
65759;SDS011;52496;51.082;5.066;2023-03-03T14:45:32;14.40;;;7.72;;
65759;SDS011;52496;51.082;5.066;2023-03-03T14:48:10;14.93;;;7.25;;
65759;SDS011;52496;51.082;5.066;2023-03-03T14:53:53;18.48;;;8.77;;
65759;SDS011;52496;51.082;5.066;2023-03-03T14:56:27;15.23;;;8.07;;
65759;SDS011;52496;51.082;5.066;2023-03-03T14:59:15;14.70;;;7.95;;
65759;SDS011;52496;51.082;5.066;2023-03-03T15:01:56;14.98;;;6.65;;
65759;SDS011;52496;51.082;5.066;2023-03-03T15:04:36;14.27;;;6.82;;
65759;SDS011;52496;51.082;5.066;2023-03-03T15:09:56;17.70;;;7.15;;
65759;SDS011;52496;51.082;5.066;2023-03-03T15:12:37;13.23;;;7.25;;
65759;SDS011;52496;51.082;5.066;2023-03-03T15:15:20;13.98;;;8.43;;
65759;SDS011;52496;51.082;5.066;2023-03-03T15:18:00;16.27;;;7.90;;
65759;SDS011;52496;51.082;5.066;2023-03-03T15:26:19;12.88;;;6.55;;
65759;SDS011;52496;51.082;5.066;2023-03-03T15:29:16;13.57;;;7.00;;
65759;SDS011;52496;51.082;5.066;2023-03-03T15:32:10;14.38;;;6.88;;
65759;SDS011;52496;51.082;5.066;2023-03-03T15:34:51;15.90;;;7.43;;
65759;SDS011;52496;51.082;5.066;2023-03-03T15:37:37;13.25;;;7.38;;
65759;SDS011;52496;51.082;5.066;2023-03-03T15:40:21;14.35;;;8.38;;
65759;SDS011;52496;51.082;5.066;2023-03-03T15:46:08;20.80;;;7.22;;
65759;SDS011;52496;51.082;5.066;2023-03-03T15:49:08;13.75;;;7.10;;
65759;SDS011;52496;51.082;5.066;2023-03-03T15:52:02;13.05;;;7.60;;
65759;SDS011;52496;51.082;5.066;2023-03-03T16:05:27;12.10;;;6.13;;
65759;SDS011;52496;51.082;5.066;2023-03-03T16:16:21;14.88;;;6.07;;
65759;SDS011;52496;51.082;5.066;2023-03-03T16:19:48;11.23;;;5.93;;
65759;SDS011;52496;51.082;5.066;2023-03-03T16:28:05;12.17;;;6.43;;
65759;SDS011;52496;51.082;5.066;2023-03-03T16:33:32;10.70;;;6.30;;
65759;SDS011;52496;51.082;5.066;2023-03-03T16:42:01;10.07;;;5.55;;
65759;SDS011;52496;51.082;5.066;2023-03-03T16:44:46;11.20;;;6.35;;
65759;SDS011;52496;51.082;5.066;2023-03-03T16:50:18;12.70;;;5.88;;
65759;SDS011;52496;51.082;5.066;2023-03-03T16:56:03;12.05;;;6.30;;
65759;SDS011;52496;51.082;5.066;2023-03-03T17:04:28;11.32;;;5.68;;
65759;SDS011;52496;51.082;5.066;2023-03-03T17:13:01;14.13;;;7.22;;
65759;SDS011;52496;51.082;5.066;2023-03-03T17:21:18;8.98;;;5.28;;
65759;SDS011;52496;51.082;5.066;2023-03-03T17:26:34;8.85;;;4.97;;
65759;SDS011;52496;51.082;5.066;2023-03-03T17:45:42;11.40;;;6.28;;
65759;SDS011;52496;51.082;5.066;2023-03-03T17:50:58;12.40;;;6.63;;
65759;SDS011;52496;51.082;5.066;2023-03-03T17:53:59;11.13;;;6.07;;
65759;SDS011;52496;51.082;5.066;2023-03-03T17:56:44;11.45;;;6.50;;
65759;SDS011;52496;51.082;5.066;2023-03-03T18:05:16;14.30;;;7.22;;
65759;SDS011;52496;51.082;5.066;2023-03-03T18:10:37;17.05;;;7.57;;
65759;SDS011;52496;51.082;5.066;2023-03-03T18:16:51;12.85;;;6.60;;
65759;SDS011;52496;51.082;5.066;2023-03-03T18:22:20;11.45;;;5.93;;
65759;SDS011;52496;51.082;5.066;2023-03-03T18:25:07;12.68;;;7.05;;
65759;SDS011;52496;51.082;5.066;2023-03-03T18:27:39;13.23;;;7.45;;
65759;SDS011;52496;51.082;5.066;2023-03-03T18:35:29;14.00;;;7.30;;
65759;SDS011;52496;51.082;5.066;2023-03-03T18:40:53;14.55;;;6.97;;
65759;SDS011;52496;51.082;5.066;2023-03-03T18:48:56;14.00;;;7.65;;
65759;SDS011;52496;51.082;5.066;2023-03-03T19:05:17;16.10;;;8.70;;
65759;SDS011;52496;51.082;5.066;2023-03-03T19:10:52;22.48;;;9.70;;
65759;SDS011;52496;51.082;5.066;2023-03-03T19:16:02;14.30;;;7.70;;
65759;SDS011;52496;51.082;5.066;2023-03-03T19:24:02;16.67;;;7.57;;
65759;SDS011;52496;51.082;5.066;2023-03-03T19:35:08;20.85;;;9.02;;
65759;SDS011;52496;51.082;5.066;2023-03-03T19:40:24;16.48;;;9.05;;
65759;SDS011;52496;51.082;5.066;2023-03-03T19:48:34;13.93;;;7.22;;
65759;SDS011;52496;51.082;5.066;2023-03-03T19:51:11;10.73;;;6.85;;
65759;SDS011;52496;51.082;5.066;2023-03-03T19:56:51;9.93;;;6.47;;
65759;SDS011;52496;51.082;5.066;2023-03-03T19:59:31;9.98;;;6.25;;
65759;SDS011;52496;51.082;5.066;2023-03-03T20:05:12;10.88;;;6.45;;
65759;SDS011;52496;51.082;5.066;2023-03-03T20:07:53;10.02;;;5.80;;
65759;SDS011;52496;51.082;5.066;2023-03-03T20:10:38;9.32;;;6.28;;
65759;SDS011;52496;51.082;5.066;2023-03-03T20:13:35;9.15;;;6.00;;
65759;SDS011;52496;51.082;5.066;2023-03-03T20:16:37;8.40;;;5.53;;
65759;SDS011;52496;51.082;5.066;2023-03-03T20:24:49;8.45;;;5.40;;
65759;SDS011;52496;51.082;5.066;2023-03-03T20:30:22;8.95;;;6.75;;
65759;SDS011;52496;51.082;5.066;2023-03-03T20:36:14;10.40;;;6.00;;
65759;SDS011;52496;51.082;5.066;2023-03-03T20:38:55;10.25;;;5.25;;
65759;SDS011;52496;51.082;5.066;2023-03-03T20:55:24;7.57;;;5.20;;
65759;SDS011;52496;51.082;5.066;2023-03-03T20:58:33;7.78;;;5.78;;
65759;SDS011;52496;51.082;5.066;2023-03-03T21:04:19;9.40;;;6.15;;
65759;SDS011;52496;51.082;5.066;2023-03-03T21:06:50;8.23;;;5.32;;
65759;SDS011;52496;51.082;5.066;2023-03-03T21:12:03;9.23;;;5.20;;
65759;SDS011;52496;51.082;5.066;2023-03-03T21:14:40;8.85;;;5.60;;
65759;SDS011;52496;51.082;5.066;2023-03-03T21:17:25;9.43;;;5.53;;
65759;SDS011;52496;51.082;5.066;2023-03-03T21:22:49;9.38;;;5.75;;
65759;SDS011;52496;51.082;5.066;2023-03-03T21:28:25;7.22;;;5.13;;
65759;SDS011;52496;51.082;5.066;2023-03-03T21:34:01;10.98;;;5.70;;
65759;SDS011;52496;51.082;5.066;2023-03-03T21:39:18;11.68;;;5.95;;
65759;SDS011;52496;51.082;5.066;2023-03-03T21:42:10;10.75;;;6.28;;
65759;SDS011;52496;51.082;5.066;2023-03-03T21:44:40;8.25;;;6.13;;
65759;SDS011;52496;51.082;5.066;2023-03-03T21:47:21;8.85;;;6.07;;
65759;SDS011;52496;51.082;5.066;2023-03-03T21:49:52;11.98;;;6.57;;
65759;SDS011;52496;51.082;5.066;2023-03-03T21:52:23;14.02;;;6.22;;
65759;SDS011;52496;51.082;5.066;2023-03-03T21:54:53;9.77;;;6.15;;
65759;SDS011;52496;51.082;5.066;2023-03-03T21:57:24;9.43;;;6.40;;
65759;SDS011;52496;51.082;5.066;2023-03-03T21:59:55;9.73;;;6.10;;
65759;SDS011;52496;51.082;5.066;2023-03-03T22:02:25;9.30;;;5.70;;
65759;SDS011;52496;51.082;5.066;2023-03-03T22:04:56;10.32;;;6.72;;
65759;SDS011;52496;51.082;5.066;2023-03-03T22:07:26;9.82;;;6.78;;
65759;SDS011;52496;51.082;5.066;2023-03-03T22:09:57;9.90;;;6.88;;
65759;SDS011;52496;51.082;5.066;2023-03-03T22:12:27;9.30;;;6.57;;
65759;SDS011;52496;51.082;5.066;2023-03-03T22:14:58;10.45;;;7.03;;